sensor_id;sensor_type;location;lat;lon;timestamp;P1;durP1;ratioP1;P2;durP2;ratioP2
65279;SDS011;51878;55.748;48.742;2023-01-04T00:01:10;5.82;;;4.32;;
65279;SDS011;51878;55.748;48.742;2023-01-04T00:03:40;7.03;;;4.35;;
65279;SDS011;51878;55.748;48.742;2023-01-04T00:06:09;6.15;;;4.30;;
65279;SDS011;51878;55.748;48.742;2023-01-04T00:08:37;6.38;;;4.20;;
65279;SDS011;51878;55.748;48.742;2023-01-04T00:11:06;6.90;;;3.58;;
65279;SDS011;51878;55.748;48.742;2023-01-04T00:13:40;6.03;;;4.15;;
65279;SDS011;51878;55.748;48.742;2023-01-04T00:16:10;6.32;;;3.78;;
65279;SDS011;51878;55.748;48.742;2023-01-04T00:18:39;5.63;;;4.00;;
65279;SDS011;51878;55.748;48.742;2023-01-04T00:21:08;5.90;;;4.07;;
65279;SDS011;51878;55.748;48.742;2023-01-04T00:23:37;4.63;;;3.85;;
65279;SDS011;51878;55.748;48.742;2023-01-04T00:26:06;6.53;;;3.33;;
65279;SDS011;51878;55.748;48.742;2023-01-04T00:28:37;6.00;;;3.85;;
65279;SDS011;51878;55.748;48.742;2023-01-04T00:31:06;4.70;;;3.65;;
65279;SDS011;51878;55.748;48.742;2023-01-04T00:33:35;4.50;;;3.30;;
65279;SDS011;51878;55.748;48.742;2023-01-04T00:36:03;5.90;;;3.63;;
65279;SDS011;51878;55.748;48.742;2023-01-04T00:38:39;5.38;;;3.53;;
65279;SDS011;51878;55.748;48.742;2023-01-04T00:41:07;7.10;;;4.22;;
65279;SDS011;51878;55.748;48.742;2023-01-04T00:43:48;5.00;;;3.33;;
65279;SDS011;51878;55.748;48.742;2023-01-04T00:46:15;4.60;;;3.25;;
65279;SDS011;51878;55.748;48.742;2023-01-04T00:48:42;7.45;;;3.85;;
65279;SDS011;51878;55.748;48.742;2023-01-04T00:51:14;5.45;;;3.45;;
65279;SDS011;51878;55.748;48.742;2023-01-04T00:53:41;4.25;;;3.13;;
65279;SDS011;51878;55.748;48.742;2023-01-04T00:56:08;5.68;;;3.70;;
65279;SDS011;51878;55.748;48.742;2023-01-04T00:58:35;4.10;;;3.13;;
65279;SDS011;51878;55.748;48.742;2023-01-04T01:01:06;7.35;;;3.30;;
65279;SDS011;51878;55.748;48.742;2023-01-04T01:03:34;4.55;;;3.13;;
65279;SDS011;51878;55.748;48.742;2023-01-04T01:06:04;4.75;;;2.90;;
65279;SDS011;51878;55.748;48.742;2023-01-04T01:08:33;4.18;;;2.90;;
65279;SDS011;51878;55.748;48.742;2023-01-04T01:11:03;5.20;;;2.67;;
65279;SDS011;51878;55.748;48.742;2023-01-04T01:13:32;4.03;;;2.95;;
65279;SDS011;51878;55.748;48.742;2023-01-04T01:16:03;4.47;;;2.80;;
65279;SDS011;51878;55.748;48.742;2023-01-04T01:18:37;5.95;;;2.97;;
65279;SDS011;51878;55.748;48.742;2023-01-04T01:21:11;5.43;;;3.05;;
65279;SDS011;51878;55.748;48.742;2023-01-04T01:23:39;4.47;;;2.45;;
65279;SDS011;51878;55.748;48.742;2023-01-04T01:26:07;5.13;;;3.33;;
65279;SDS011;51878;55.748;48.742;2023-01-04T01:28:36;7.65;;;3.08;;
65279;SDS011;51878;55.748;48.742;2023-01-04T01:31:04;4.82;;;2.97;;
65279;SDS011;51878;55.748;48.742;2023-01-04T01:33:39;7.13;;;3.10;;
65279;SDS011;51878;55.748;48.742;2023-01-04T01:36:08;4.82;;;2.92;;
65279;SDS011;51878;55.748;48.742;2023-01-04T01:38:36;4.88;;;2.97;;
65279;SDS011;51878;55.748;48.742;2023-01-04T01:41:03;4.60;;;2.70;;
65279;SDS011;51878;55.748;48.742;2023-01-04T01:49:03;4.05;;;2.65;;
65279;SDS011;51878;55.748;48.742;2023-01-04T01:51:36;4.03;;;2.70;;
65279;SDS011;51878;55.748;48.742;2023-01-04T01:54:05;5.05;;;3.20;;
65279;SDS011;51878;55.748;48.742;2023-01-04T01:56:46;4.38;;;2.90;;
65279;SDS011;51878;55.748;48.742;2023-01-04T01:59:16;4.00;;;2.97;;
65279;SDS011;51878;55.748;48.742;2023-01-04T02:01:44;6.75;;;3.22;;
65279;SDS011;51878;55.748;48.742;2023-01-04T02:04:11;4.40;;;3.13;;
65279;SDS011;51878;55.748;48.742;2023-01-04T02:06:41;3.35;;;2.67;;
65279;SDS011;51878;55.748;48.742;2023-01-04T02:09:11;3.58;;;2.80;;
65279;SDS011;51878;55.748;48.742;2023-01-04T02:11:39;5.30;;;3.22;;
65279;SDS011;51878;55.748;48.742;2023-01-04T02:14:06;6.28;;;3.42;;
65279;SDS011;51878;55.748;48.742;2023-01-04T02:17:07;6.40;;;3.05;;
65279;SDS011;51878;55.748;48.742;2023-01-04T02:31:21;5.03;;;2.90;;
65279;SDS011;51878;55.748;48.742;2023-01-04T02:37:07;4.30;;;2.60;;
65279;SDS011;51878;55.748;48.742;2023-01-04T02:45:42;6.40;;;3.00;;
65279;SDS011;51878;55.748;48.742;2023-01-04T02:48:15;3.95;;;2.53;;
65279;SDS011;51878;55.748;48.742;2023-01-04T02:51:01;5.15;;;2.80;;
65279;SDS011;51878;55.748;48.742;2023-01-04T02:53:34;3.15;;;2.42;;
65279;SDS011;51878;55.748;48.742;2023-01-04T02:56:18;7.32;;;2.83;;
65279;SDS011;51878;55.748;48.742;2023-01-04T02:59:04;5.63;;;2.80;;
65279;SDS011;51878;55.748;48.742;2023-01-04T03:11:03;4.30;;;2.90;;
65279;SDS011;51878;55.748;48.742;2023-01-04T03:14:14;4.95;;;3.00;;
65279;SDS011;51878;55.748;48.742;2023-01-04T03:16:59;5.35;;;2.90;;
65279;SDS011;51878;55.748;48.742;2023-01-04T03:19:32;3.95;;;2.45;;
65279;SDS011;51878;55.748;48.742;2023-01-04T03:22:18;5.13;;;2.88;;
65279;SDS011;51878;55.748;48.742;2023-01-04T03:25:09;4.00;;;2.60;;
65279;SDS011;51878;55.748;48.742;2023-01-04T03:27:57;3.15;;;2.35;;
65279;SDS011;51878;55.748;48.742;2023-01-04T03:30:49;5.07;;;2.83;;
65279;SDS011;51878;55.748;48.742;2023-01-04T03:33:38;5.53;;;3.05;;
65279;SDS011;51878;55.748;48.742;2023-01-04T03:39:46;2.75;;;1.85;;
65279;SDS011;51878;55.748;48.742;2023-01-04T03:43:26;4.93;;;3.10;;
65279;SDS011;51878;55.748;48.742;2023-01-04T03:46:06;16.98;;;3.13;;
65279;SDS011;51878;55.748;48.742;2023-01-04T03:49:04;4.60;;;2.72;;
65279;SDS011;51878;55.748;48.742;2023-01-04T03:51:34;3.95;;;2.78;;
65279;SDS011;51878;55.748;48.742;2023-01-04T03:54:05;3.83;;;2.75;;
65279;SDS011;51878;55.748;48.742;2023-01-04T03:56:43;3.58;;;2.72;;
65279;SDS011;51878;55.748;48.742;2023-01-04T03:59:12;5.65;;;2.58;;
65279;SDS011;51878;55.748;48.742;2023-01-04T04:01:40;4.10;;;2.90;;
65279;SDS011;51878;55.748;48.742;2023-01-04T04:04:09;4.85;;;3.20;;
65279;SDS011;51878;55.748;48.742;2023-01-04T04:06:55;5.70;;;3.28;;
65279;SDS011;51878;55.748;48.742;2023-01-04T04:09:41;6.32;;;2.85;;
65279;SDS011;51878;55.748;48.742;2023-01-04T04:12:08;5.50;;;3.05;;
65279;SDS011;51878;55.748;48.742;2023-01-04T04:14:35;8.13;;;3.20;;
65279;SDS011;51878;55.748;48.742;2023-01-04T04:17:02;5.25;;;3.30;;
65279;SDS011;51878;55.748;48.742;2023-01-04T04:19:29;4.03;;;2.75;;
65279;SDS011;51878;55.748;48.742;2023-01-04T04:21:56;5.63;;;2.97;;
65279;SDS011;51878;55.748;48.742;2023-01-04T04:24:24;5.05;;;2.55;;
65279;SDS011;51878;55.748;48.742;2023-01-04T04:26:52;4.28;;;2.53;;
65279;SDS011;51878;55.748;48.742;2023-01-04T04:29:20;7.20;;;3.10;;
65279;SDS011;51878;55.748;48.742;2023-01-04T04:31:48;4.70;;;2.92;;
65279;SDS011;51878;55.748;48.742;2023-01-04T04:34:16;5.30;;;2.72;;
65279;SDS011;51878;55.748;48.742;2023-01-04T04:36:43;6.03;;;2.65;;
65279;SDS011;51878;55.748;48.742;2023-01-04T04:39:10;3.47;;;2.15;;
65279;SDS011;51878;55.748;48.742;2023-01-04T04:41:38;6.25;;;2.60;;
65279;SDS011;51878;55.748;48.742;2023-01-04T04:44:11;5.53;;;2.30;;
65279;SDS011;51878;55.748;48.742;2023-01-04T04:46:40;8.27;;;3.22;;
65279;SDS011;51878;55.748;48.742;2023-01-04T04:49:09;3.17;;;2.33;;
65279;SDS011;51878;55.748;48.742;2023-01-04T04:51:37;4.45;;;2.60;;
65279;SDS011;51878;55.748;48.742;2023-01-04T04:54:04;5.45;;;2.55;;
65279;SDS011;51878;55.748;48.742;2023-01-04T04:56:33;4.47;;;2.70;;
65279;SDS011;51878;55.748;48.742;2023-01-04T04:59:02;4.57;;;2.83;;
65279;SDS011;51878;55.748;48.742;2023-01-04T05:01:30;4.03;;;2.45;;
65279;SDS011;51878;55.748;48.742;2023-01-04T05:03:58;4.32;;;2.67;;
65279;SDS011;51878;55.748;48.742;2023-01-04T05:06:25;4.20;;;2.80;;
65279;SDS011;51878;55.748;48.742;2023-01-04T05:08:52;4.32;;;2.50;;
65279;SDS011;51878;55.748;48.742;2023-01-04T05:11:19;3.72;;;2.83;;
65279;SDS011;51878;55.748;48.742;2023-01-04T05:14:07;2.95;;;2.38;;
65279;SDS011;51878;55.748;48.742;2023-01-04T05:16:34;4.47;;;2.80;;
65279;SDS011;51878;55.748;48.742;2023-01-04T05:19:01;4.53;;;2.97;;
65279;SDS011;51878;55.748;48.742;2023-01-04T05:21:29;4.85;;;2.63;;
65279;SDS011;51878;55.748;48.742;2023-01-04T05:23:56;4.03;;;2.95;;
65279;SDS011;51878;55.748;48.742;2023-01-04T05:26:23;5.20;;;3.00;;
65279;SDS011;51878;55.748;48.742;2023-01-04T05:28:50;3.15;;;2.40;;
65279;SDS011;51878;55.748;48.742;2023-01-04T05:31:19;3.58;;;2.33;;
65279;SDS011;51878;55.748;48.742;2023-01-04T05:33:47;5.28;;;2.70;;
65279;SDS011;51878;55.748;48.742;2023-01-04T05:36:14;2.67;;;2.40;;
65279;SDS011;51878;55.748;48.742;2023-01-04T05:38:41;3.63;;;2.20;;
65279;SDS011;51878;55.748;48.742;2023-01-04T05:41:08;3.47;;;2.47;;
65279;SDS011;51878;55.748;48.742;2023-01-04T05:43:54;2.95;;;2.35;;
65279;SDS011;51878;55.748;48.742;2023-01-04T05:46:21;4.00;;;2.45;;
65279;SDS011;51878;55.748;48.742;2023-01-04T05:48:48;4.15;;;2.72;;
65279;SDS011;51878;55.748;48.742;2023-01-04T05:51:15;3.60;;;2.30;;
65279;SDS011;51878;55.748;48.742;2023-01-04T05:53:42;5.05;;;3.40;;
65279;SDS011;51878;55.748;48.742;2023-01-04T05:56:09;4.03;;;3.00;;
65279;SDS011;51878;55.748;48.742;2023-01-04T05:58:37;3.17;;;2.40;;
65279;SDS011;51878;55.748;48.742;2023-01-04T06:01:04;3.22;;;2.22;;
65279;SDS011;51878;55.748;48.742;2023-01-04T06:03:33;3.85;;;2.55;;
65279;SDS011;51878;55.748;48.742;2023-01-04T06:06:00;3.90;;;2.63;;
65279;SDS011;51878;55.748;48.742;2023-01-04T06:08:27;5.95;;;3.70;;
65279;SDS011;51878;55.748;48.742;2023-01-04T06:10:54;6.55;;;2.80;;
65279;SDS011;51878;55.748;48.742;2023-01-04T06:13:21;4.97;;;2.65;;
65279;SDS011;51878;55.748;48.742;2023-01-04T06:15:48;4.47;;;2.60;;
65279;SDS011;51878;55.748;48.742;2023-01-04T06:18:15;4.25;;;2.63;;
65279;SDS011;51878;55.748;48.742;2023-01-04T06:20:42;6.60;;;2.83;;
65279;SDS011;51878;55.748;48.742;2023-01-04T06:23:09;4.82;;;2.70;;
65279;SDS011;51878;55.748;48.742;2023-01-04T06:25:36;7.03;;;2.95;;
65279;SDS011;51878;55.748;48.742;2023-01-04T06:28:04;5.47;;;2.80;;
65279;SDS011;51878;55.748;48.742;2023-01-04T06:30:34;3.85;;;2.47;;
65279;SDS011;51878;55.748;48.742;2023-01-04T06:33:03;5.13;;;2.85;;
65279;SDS011;51878;55.748;48.742;2023-01-04T06:35:30;5.05;;;2.50;;
65279;SDS011;51878;55.748;48.742;2023-01-04T06:37:57;5.00;;;2.80;;
65279;SDS011;51878;55.748;48.742;2023-01-04T06:40:24;4.72;;;2.55;;
65279;SDS011;51878;55.748;48.742;2023-01-04T06:42:51;4.47;;;2.17;;
65279;SDS011;51878;55.748;48.742;2023-01-04T06:45:18;3.75;;;2.25;;
65279;SDS011;51878;55.748;48.742;2023-01-04T06:47:45;4.05;;;2.35;;
65279;SDS011;51878;55.748;48.742;2023-01-04T06:50:13;3.45;;;2.40;;
65279;SDS011;51878;55.748;48.742;2023-01-04T06:52:42;4.13;;;2.08;;
65279;SDS011;51878;55.748;48.742;2023-01-04T06:55:12;5.50;;;3.47;;
65279;SDS011;51878;55.748;48.742;2023-01-04T06:57:39;4.28;;;2.28;;
65279;SDS011;51878;55.748;48.742;2023-01-04T07:00:06;2.88;;;2.28;;
65279;SDS011;51878;55.748;48.742;2023-01-04T07:02:34;4.90;;;2.05;;
65279;SDS011;51878;55.748;48.742;2023-01-04T07:05:01;3.53;;;2.42;;
65279;SDS011;51878;55.748;48.742;2023-01-04T07:07:29;4.68;;;2.80;;
65279;SDS011;51878;55.748;48.742;2023-01-04T07:09:57;4.15;;;2.63;;
65279;SDS011;51878;55.748;48.742;2023-01-04T07:12:29;2.92;;;2.25;;
65279;SDS011;51878;55.748;48.742;2023-01-04T07:14:56;5.75;;;2.40;;
65279;SDS011;51878;55.748;48.742;2023-01-04T07:17:23;4.60;;;2.35;;
65279;SDS011;51878;55.748;48.742;2023-01-04T07:19:55;3.50;;;2.28;;
65279;SDS011;51878;55.748;48.742;2023-01-04T07:22:22;3.47;;;2.17;;
65279;SDS011;51878;55.748;48.742;2023-01-04T07:24:49;4.65;;;2.20;;
65279;SDS011;51878;55.748;48.742;2023-01-04T07:27:16;3.88;;;2.65;;
65279;SDS011;51878;55.748;48.742;2023-01-04T07:29:43;3.03;;;2.15;;
65279;SDS011;51878;55.748;48.742;2023-01-04T07:32:10;4.35;;;2.35;;
65279;SDS011;51878;55.748;48.742;2023-01-04T07:34:39;4.07;;;2.55;;
65279;SDS011;51878;55.748;48.742;2023-01-04T07:37:06;4.65;;;2.60;;
65279;SDS011;51878;55.748;48.742;2023-01-04T07:39:36;4.55;;;2.63;;
65279;SDS011;51878;55.748;48.742;2023-01-04T07:42:05;4.22;;;2.42;;
65279;SDS011;51878;55.748;48.742;2023-01-04T07:44:36;4.45;;;2.42;;
65279;SDS011;51878;55.748;48.742;2023-01-04T07:47:06;6.35;;;3.05;;
65279;SDS011;51878;55.748;48.742;2023-01-04T07:49:33;5.55;;;3.22;;
65279;SDS011;51878;55.748;48.742;2023-01-04T07:52:00;6.45;;;3.38;;
65279;SDS011;51878;55.748;48.742;2023-01-04T07:54:27;4.15;;;2.60;;
65279;SDS011;51878;55.748;48.742;2023-01-04T07:56:54;7.38;;;3.15;;
65279;SDS011;51878;55.748;48.742;2023-01-04T07:59:21;9.30;;;3.20;;
65279;SDS011;51878;55.748;48.742;2023-01-04T08:01:49;3.65;;;2.35;;
65279;SDS011;51878;55.748;48.742;2023-01-04T08:04:17;4.57;;;3.20;;
65279;SDS011;51878;55.748;48.742;2023-01-04T08:06:48;4.32;;;2.95;;
65279;SDS011;51878;55.748;48.742;2023-01-04T08:09:16;4.53;;;2.58;;
65279;SDS011;51878;55.748;48.742;2023-01-04T08:11:43;5.43;;;3.55;;
65279;SDS011;51878;55.748;48.742;2023-01-04T08:14:11;3.60;;;2.40;;
65279;SDS011;51878;55.748;48.742;2023-01-04T08:16:39;5.30;;;2.63;;
65279;SDS011;51878;55.748;48.742;2023-01-04T08:19:11;5.57;;;3.00;;
65279;SDS011;51878;55.748;48.742;2023-01-04T08:21:41;5.53;;;2.65;;
65279;SDS011;51878;55.748;48.742;2023-01-04T08:24:09;3.53;;;2.30;;
65279;SDS011;51878;55.748;48.742;2023-01-04T08:26:37;2.40;;;2.00;;
65279;SDS011;51878;55.748;48.742;2023-01-04T08:29:04;4.50;;;2.33;;
65279;SDS011;51878;55.748;48.742;2023-01-04T08:31:32;2.92;;;2.17;;
65279;SDS011;51878;55.748;48.742;2023-01-04T08:34:01;2.38;;;2.00;;
65279;SDS011;51878;55.748;48.742;2023-01-04T08:36:31;3.33;;;1.83;;
65279;SDS011;51878;55.748;48.742;2023-01-04T08:39:00;4.25;;;2.60;;
65279;SDS011;51878;55.748;48.742;2023-01-04T08:41:33;3.35;;;2.45;;
65279;SDS011;51878;55.748;48.742;2023-01-04T08:44:26;5.22;;;2.63;;
65279;SDS011;51878;55.748;48.742;2023-01-04T08:46:53;4.38;;;2.40;;
65279;SDS011;51878;55.748;48.742;2023-01-04T08:49:21;2.88;;;2.10;;
65279;SDS011;51878;55.748;48.742;2023-01-04T08:51:49;5.05;;;2.75;;
65279;SDS011;51878;55.748;48.742;2023-01-04T08:54:16;4.22;;;2.63;;
65279;SDS011;51878;55.748;48.742;2023-01-04T08:56:45;12.75;;;3.00;;
65279;SDS011;51878;55.748;48.742;2023-01-04T08:59:12;5.40;;;2.80;;
65279;SDS011;51878;55.748;48.742;2023-01-04T09:01:39;8.23;;;3.25;;
65279;SDS011;51878;55.748;48.742;2023-01-04T09:04:07;5.15;;;3.13;;
65279;SDS011;51878;55.748;48.742;2023-01-04T09:06:36;7.22;;;3.30;;
65279;SDS011;51878;55.748;48.742;2023-01-04T09:09:03;4.30;;;3.55;;
65279;SDS011;51878;55.748;48.742;2023-01-04T09:11:31;5.72;;;3.15;;
65279;SDS011;51878;55.748;48.742;2023-01-04T09:13:58;5.38;;;3.40;;
65279;SDS011;51878;55.748;48.742;2023-01-04T09:16:37;8.35;;;3.50;;
65279;SDS011;51878;55.748;48.742;2023-01-04T09:19:05;9.90;;;3.45;;
65279;SDS011;51878;55.748;48.742;2023-01-04T09:21:32;7.13;;;3.63;;
65279;SDS011;51878;55.748;48.742;2023-01-04T09:23:59;6.70;;;3.60;;
65279;SDS011;51878;55.748;48.742;2023-01-04T09:26:26;8.00;;;3.67;;
65279;SDS011;51878;55.748;48.742;2023-01-04T09:28:54;5.78;;;3.10;;
65279;SDS011;51878;55.748;48.742;2023-01-04T09:31:23;5.88;;;3.28;;
65279;SDS011;51878;55.748;48.742;2023-01-04T09:33:51;6.30;;;3.63;;
65279;SDS011;51878;55.748;48.742;2023-01-04T09:36:39;5.75;;;3.38;;
65279;SDS011;51878;55.748;48.742;2023-01-04T09:39:06;10.50;;;3.70;;
65279;SDS011;51878;55.748;48.742;2023-01-04T09:41:42;6.95;;;3.47;;
65279;SDS011;51878;55.748;48.742;2023-01-04T09:44:24;6.78;;;3.92;;
65279;SDS011;51878;55.748;48.742;2023-01-04T09:50:22;7.75;;;3.50;;
65279;SDS011;51878;55.748;48.742;2023-01-04T09:52:55;4.28;;;2.92;;
65279;SDS011;51878;55.748;48.742;2023-01-04T09:55:41;6.75;;;2.90;;
65279;SDS011;51878;55.748;48.742;2023-01-04T09:58:27;5.97;;;3.40;;
65279;SDS011;51878;55.748;48.742;2023-01-04T10:01:02;5.32;;;3.35;;
65279;SDS011;51878;55.748;48.742;2023-01-04T10:03:36;4.45;;;2.95;;
65279;SDS011;51878;55.748;48.742;2023-01-04T10:06:05;5.07;;;3.35;;
65279;SDS011;51878;55.748;48.742;2023-01-04T10:08:35;4.75;;;3.00;;
65279;SDS011;51878;55.748;48.742;2023-01-04T10:31:19;4.30;;;2.88;;
65279;SDS011;51878;55.748;48.742;2023-01-04T10:36:44;4.85;;;2.83;;
65279;SDS011;51878;55.748;48.742;2023-01-04T10:39:15;4.40;;;2.85;;
65279;SDS011;51878;55.748;48.742;2023-01-04T10:41:45;5.93;;;3.35;;
65279;SDS011;51878;55.748;48.742;2023-01-04T10:47:16;7.68;;;2.90;;
65279;SDS011;51878;55.748;48.742;2023-01-04T10:49:56;7.00;;;2.78;;
65279;SDS011;51878;55.748;48.742;2023-01-04T10:52:30;8.75;;;3.17;;
65279;SDS011;51878;55.748;48.742;2023-01-04T10:57:47;8.52;;;3.03;;
65279;SDS011;51878;55.748;48.742;2023-01-04T11:00:29;3.35;;;2.42;;
65279;SDS011;51878;55.748;48.742;2023-01-04T11:03:08;6.65;;;2.95;;
65279;SDS011;51878;55.748;48.742;2023-01-04T11:05:44;4.20;;;2.55;;
65279;SDS011;51878;55.748;48.742;2023-01-04T11:11:12;5.40;;;3.13;;
65279;SDS011;51878;55.748;48.742;2023-01-04T11:13:47;5.13;;;2.83;;
65279;SDS011;51878;55.748;48.742;2023-01-04T11:16:15;2.85;;;2.38;;
65279;SDS011;51878;55.748;48.742;2023-01-04T11:18:42;4.43;;;2.50;;
65279;SDS011;51878;55.748;48.742;2023-01-04T11:21:12;2.58;;;2.30;;
65279;SDS011;51878;55.748;48.742;2023-01-04T11:23:41;6.95;;;2.85;;
65279;SDS011;51878;55.748;48.742;2023-01-04T11:26:12;4.88;;;2.63;;
65279;SDS011;51878;55.748;48.742;2023-01-04T11:28:46;3.00;;;2.10;;
65279;SDS011;51878;55.748;48.742;2023-01-04T11:34:13;3.72;;;2.10;;
65279;SDS011;51878;55.748;48.742;2023-01-04T11:36:44;4.20;;;2.38;;
65279;SDS011;51878;55.748;48.742;2023-01-04T11:39:20;4.13;;;2.20;;
65279;SDS011;51878;55.748;48.742;2023-01-04T11:44:28;4.15;;;2.25;;
65279;SDS011;51878;55.748;48.742;2023-01-04T11:49:38;5.18;;;2.10;;
65279;SDS011;51878;55.748;48.742;2023-01-04T11:52:05;4.35;;;2.30;;
65279;SDS011;51878;55.748;48.742;2023-01-04T11:54:52;3.00;;;2.40;;
65279;SDS011;51878;55.748;48.742;2023-01-04T11:57:19;7.15;;;2.60;;
65279;SDS011;51878;55.748;48.742;2023-01-04T12:00:07;6.07;;;2.65;;
65279;SDS011;51878;55.748;48.742;2023-01-04T12:02:36;5.20;;;2.20;;
65279;SDS011;51878;55.748;48.742;2023-01-04T12:05:23;4.18;;;2.50;;
65279;SDS011;51878;55.748;48.742;2023-01-04T12:07:55;4.72;;;2.08;;
65279;SDS011;51878;55.748;48.742;2023-01-04T12:10:24;3.60;;;2.50;;
65279;SDS011;51878;55.748;48.742;2023-01-04T12:12:53;6.15;;;2.70;;
65279;SDS011;51878;55.748;48.742;2023-01-04T12:15:37;5.15;;;2.00;;
65279;SDS011;51878;55.748;48.742;2023-01-04T12:20:54;1.98;;;1.67;;
65279;SDS011;51878;55.748;48.742;2023-01-04T12:23:22;3.30;;;2.08;;
65279;SDS011;51878;55.748;48.742;2023-01-04T12:25:50;3.58;;;2.28;;
65279;SDS011;51878;55.748;48.742;2023-01-04T12:28:31;2.92;;;2.15;;
65279;SDS011;51878;55.748;48.742;2023-01-04T12:33:49;5.90;;;2.70;;
65279;SDS011;51878;55.748;48.742;2023-01-04T12:36:20;3.47;;;2.20;;
65279;SDS011;51878;55.748;48.742;2023-01-04T12:52:45;2.40;;;1.88;;
65279;SDS011;51878;55.748;48.742;2023-01-04T13:01:21;3.63;;;2.17;;
65279;SDS011;51878;55.748;48.742;2023-01-04T13:03:53;4.03;;;1.63;;
65279;SDS011;51878;55.748;48.742;2023-01-04T13:06:30;4.28;;;2.28;;
65279;SDS011;51878;55.748;48.742;2023-01-04T13:09:02;2.60;;;2.00;;
65279;SDS011;51878;55.748;48.742;2023-01-04T13:14:42;6.60;;;2.65;;
65279;SDS011;51878;55.748;48.742;2023-01-04T13:17:14;2.53;;;2.10;;
65279;SDS011;51878;55.748;48.742;2023-01-04T13:19:46;4.35;;;2.58;;
65279;SDS011;51878;55.748;48.742;2023-01-04T13:22:17;6.75;;;3.60;;
65279;SDS011;51878;55.748;48.742;2023-01-04T13:24:54;3.45;;;2.53;;
65279;SDS011;51878;55.748;48.742;2023-01-04T13:27:23;4.60;;;2.58;;
65279;SDS011;51878;55.748;48.742;2023-01-04T13:29:50;5.00;;;3.00;;
65279;SDS011;51878;55.748;48.742;2023-01-04T13:32:27;5.70;;;3.15;;
65279;SDS011;51878;55.748;48.742;2023-01-04T13:37:49;3.85;;;2.60;;
65279;SDS011;51878;55.748;48.742;2023-01-04T13:40:31;4.30;;;3.17;;
65279;SDS011;51878;55.748;48.742;2023-01-04T13:44:05;5.38;;;3.13;;
65279;SDS011;51878;55.748;48.742;2023-01-04T13:46:21;7.57;;;3.20;;
65279;SDS011;51878;55.748;48.742;2023-01-04T13:48:52;5.28;;;3.05;;
65279;SDS011;51878;55.748;48.742;2023-01-04T13:51:29;5.60;;;3.00;;
65279;SDS011;51878;55.748;48.742;2023-01-04T13:54:16;8.57;;;3.63;;
65279;SDS011;51878;55.748;48.742;2023-01-04T13:56:45;6.65;;;3.22;;
65279;SDS011;51878;55.748;48.742;2023-01-04T13:59:20;5.70;;;3.22;;
65279;SDS011;51878;55.748;48.742;2023-01-04T14:01:47;7.65;;;3.30;;
65279;SDS011;51878;55.748;48.742;2023-01-04T14:06:53;6.07;;;3.00;;
65279;SDS011;51878;55.748;48.742;2023-01-04T14:09:34;4.47;;;3.20;;
65279;SDS011;51878;55.748;48.742;2023-01-04T14:12:24;5.68;;;3.22;;
65279;SDS011;51878;55.748;48.742;2023-01-04T14:14:58;4.72;;;3.45;;
65279;SDS011;51878;55.748;48.742;2023-01-04T14:28:16;6.45;;;3.65;;
65279;SDS011;51878;55.748;48.742;2023-01-04T14:30:45;3.45;;;2.75;;
65279;SDS011;51878;55.748;48.742;2023-01-04T14:36:02;4.72;;;2.78;;
65279;SDS011;51878;55.748;48.742;2023-01-04T14:41:14;4.55;;;2.78;;
65279;SDS011;51878;55.748;48.742;2023-01-04T14:43:50;6.18;;;3.95;;
65279;SDS011;51878;55.748;48.742;2023-01-04T14:46:28;6.22;;;3.47;;
65279;SDS011;51878;55.748;48.742;2023-01-04T14:48:57;8.82;;;4.35;;
65279;SDS011;51878;55.748;48.742;2023-01-04T14:51:27;6.07;;;3.25;;
65279;SDS011;51878;55.748;48.742;2023-01-04T14:54:09;6.97;;;3.65;;
65279;SDS011;51878;55.748;48.742;2023-01-04T14:56:39;6.75;;;3.90;;
65279;SDS011;51878;55.748;48.742;2023-01-04T14:59:07;5.75;;;3.15;;
65279;SDS011;51878;55.748;48.742;2023-01-04T15:01:37;9.10;;;3.53;;
65279;SDS011;51878;55.748;48.742;2023-01-04T15:04:05;6.05;;;3.58;;
65279;SDS011;51878;55.748;48.742;2023-01-04T15:06:33;5.97;;;3.85;;
65279;SDS011;51878;55.748;48.742;2023-01-04T15:09:01;4.80;;;2.88;;
65279;SDS011;51878;55.748;48.742;2023-01-04T15:11:28;7.90;;;4.18;;
65279;SDS011;51878;55.748;48.742;2023-01-04T15:13:56;6.25;;;3.70;;
65279;SDS011;51878;55.748;48.742;2023-01-04T15:16:23;9.65;;;3.70;;
65279;SDS011;51878;55.748;48.742;2023-01-04T15:18:53;3.92;;;2.67;;
65279;SDS011;51878;55.748;48.742;2023-01-04T15:21:20;8.23;;;3.45;;
65279;SDS011;51878;55.748;48.742;2023-01-04T15:23:47;7.78;;;3.45;;
65279;SDS011;51878;55.748;48.742;2023-01-04T15:26:14;3.33;;;2.42;;
65279;SDS011;51878;55.748;48.742;2023-01-04T15:28:41;8.60;;;3.50;;
65279;SDS011;51878;55.748;48.742;2023-01-04T15:31:09;5.63;;;3.50;;
65279;SDS011;51878;55.748;48.742;2023-01-04T15:33:39;6.88;;;3.15;;
65279;SDS011;51878;55.748;48.742;2023-01-04T15:36:08;7.32;;;3.15;;
65279;SDS011;51878;55.748;48.742;2023-01-04T15:38:37;5.25;;;3.30;;
65279;SDS011;51878;55.748;48.742;2023-01-04T15:41:05;4.55;;;2.58;;
65279;SDS011;51878;55.748;48.742;2023-01-04T15:43:34;6.97;;;3.67;;
65279;SDS011;51878;55.748;48.742;2023-01-04T15:46:03;10.80;;;3.22;;
65279;SDS011;51878;55.748;48.742;2023-01-04T15:48:34;5.43;;;3.30;;
65279;SDS011;51878;55.748;48.742;2023-01-04T15:51:03;4.88;;;2.75;;
65279;SDS011;51878;55.748;48.742;2023-01-04T15:53:33;7.78;;;3.65;;
65279;SDS011;51878;55.748;48.742;2023-01-04T15:56:07;5.78;;;3.35;;
65279;SDS011;51878;55.748;48.742;2023-01-04T15:58:37;5.15;;;3.45;;
65279;SDS011;51878;55.748;48.742;2023-01-04T16:01:11;5.63;;;3.83;;
65279;SDS011;51878;55.748;48.742;2023-01-04T16:03:40;5.93;;;3.75;;
65279;SDS011;51878;55.748;48.742;2023-01-04T16:06:08;7.65;;;3.70;;
65279;SDS011;51878;55.748;48.742;2023-01-04T16:08:40;4.63;;;3.13;;
65279;SDS011;51878;55.748;48.742;2023-01-04T16:11:17;6.78;;;3.05;;
65279;SDS011;51878;55.748;48.742;2023-01-04T16:13:46;3.42;;;2.78;;
65279;SDS011;51878;55.748;48.742;2023-01-04T16:16:15;5.07;;;3.03;;
65279;SDS011;51878;55.748;48.742;2023-01-04T16:18:43;6.30;;;3.15;;
65279;SDS011;51878;55.748;48.742;2023-01-04T16:21:27;6.00;;;3.90;;
65279;SDS011;51878;55.748;48.742;2023-01-04T16:23:55;7.13;;;2.95;;
65279;SDS011;51878;55.748;48.742;2023-01-04T16:26:30;5.32;;;2.80;;
65279;SDS011;51878;55.748;48.742;2023-01-04T16:28:57;6.03;;;3.40;;
65279;SDS011;51878;55.748;48.742;2023-01-04T16:31:26;4.55;;;2.70;;
65279;SDS011;51878;55.748;48.742;2023-01-04T16:34:01;5.53;;;3.20;;
65279;SDS011;51878;55.748;48.742;2023-01-04T16:36:29;7.47;;;3.33;;
65279;SDS011;51878;55.748;48.742;2023-01-04T16:38:56;12.32;;;4.70;;
65279;SDS011;51878;55.748;48.742;2023-01-04T16:41:23;4.72;;;3.30;;
65279;SDS011;51878;55.748;48.742;2023-01-04T16:43:51;8.98;;;3.35;;
65279;SDS011;51878;55.748;48.742;2023-01-04T16:46:22;8.00;;;3.95;;
65279;SDS011;51878;55.748;48.742;2023-01-04T16:48:54;7.38;;;4.40;;
65279;SDS011;51878;55.748;48.742;2023-01-04T16:51:23;6.47;;;4.18;;
65279;SDS011;51878;55.748;48.742;2023-01-04T16:53:52;7.03;;;3.97;;
65279;SDS011;51878;55.748;48.742;2023-01-04T16:56:20;7.30;;;4.38;;
65279;SDS011;51878;55.748;48.742;2023-01-04T16:58:48;8.77;;;4.63;;
65279;SDS011;51878;55.748;48.742;2023-01-04T17:01:23;5.43;;;3.50;;
65279;SDS011;51878;55.748;48.742;2023-01-04T17:03:55;9.32;;;4.53;;
65279;SDS011;51878;55.748;48.742;2023-01-04T17:06:24;9.88;;;4.65;;
65279;SDS011;51878;55.748;48.742;2023-01-04T17:08:53;6.43;;;4.13;;
65279;SDS011;51878;55.748;48.742;2023-01-04T17:11:22;18.08;;;4.82;;